Time;durP1;ratioP1;P1;durP2;ratioP2;P2;SDS_P1;SDS_P2;PMS_P1;PMS_P2;Temp;Humidity;BMP_temperature;BMP_pressure;BME280_temperature;BME280_humidity;BME280_pressure;Samples;Min_cycle;Max_cycle;Signal;HPM_P1;HPM_P2
2023/12/06 00:01:26;;;;;;;85.60;47.50;;;;;;;-1.00;84.31;98533.98;226541;1273;25457;-77
2023/12/06 00:06:28;;;;;;;81.30;44.90;;;;;;;-0.97;84.17;98527.16;226540;1272;22541;-76
2023/12/06 00:11:31;;;;;;;81.30;43.30;;;;;;;-0.94;83.70;98522.50;226558;1274;24407;-76
2023/12/06 00:16:33;;;;;;;80.50;42.00;;;;;;;-0.93;83.89;98518.39;226601;1272;22703;-76
2023/12/06 00:21:35;;;;;;;82.50;45.00;;;;;;;-0.91;83.56;98517.59;226371;1273;22641;-77
2023/12/06 00:26:42;;;;;;;87.10;47.00;;;;;;;-0.89;84.20;98515.31;226524;1274;22598;-77
2023/12/06 00:31:44;;;;;;;80.20;43.90;;;;;;;-0.88;83.94;98516.78;226560;1273;22618;-76
2023/12/06 00:36:48;;;;;;;81.10;44.50;;;;;;;-0.87;83.88;98518.23;226507;1275;22744;-76
2023/12/06 00:41:50;;;;;;;84.90;46.00;;;;;;;-0.86;84.03;98521.27;226419;1273;22538;-76
2023/12/06 00:46:52;;;;;;;81.70;44.00;;;;;;;-0.85;83.78;98526.70;226554;1272;22584;-76
2023/12/06 00:51:54;;;;;;;87.00;44.80;;;;;;;-0.83;84.11;98527.59;226596;1272;22567;-76
2023/12/06 00:56:56;;;;;;;82.70;45.40;;;;;;;-0.82;83.85;98527.55;226599;1272;22733;-76
2023/12/06 01:01:58;;;;;;;87.30;45.80;;;;;;;-0.83;83.67;98534.69;226607;1270;22533;-76
2023/12/06 01:07:00;;;;;;;76.60;43.80;;;;;;;-0.84;83.94;98531.52;226594;1269;23234;-75
2023/12/06 01:12:02;;;;;;;76.40;42.80;;;;;;;-0.86;83.81;98531.84;226603;1269;25338;-76
2023/12/06 01:17:05;;;;;;;82.50;44.90;;;;;;;-0.87;83.72;98538.66;226724;1274;22658;-75
2023/12/06 01:22:07;;;;;;;79.70;44.30;;;;;;;-0.86;83.83;98539.45;226515;1274;22564;-75
2023/12/06 01:27:09;;;;;;;84.10;44.60;;;;;;;-0.85;83.99;98539.15;226526;1269;22627;-75
2023/12/06 01:32:11;;;;;;;79.70;44.10;;;;;;;-0.84;83.93;98543.58;226571;1272;23032;-75
2023/12/06 01:37:13;;;;;;;81.00;44.60;;;;;;;-0.82;84.37;98539.61;226573;1272;22534;-74
2023/12/06 01:42:16;;;;;;;74.90;42.90;;;;;;;-0.79;83.94;98544.40;226589;1272;22552;-75
2023/12/06 01:47:20;;;;;;;80.30;42.80;;;;;;;-0.79;84.00;98542.14;226546;1272;22571;-74
2023/12/06 01:52:23;;;;;;;83.10;44.80;;;;;;;-0.79;83.85;98541.30;226542;1274;22592;-75
2023/12/06 01:57:28;;;;;;;71.70;41.90;;;;;;;-0.77;83.71;98540.23;226563;1272;22622;-75
2023/12/06 02:02:30;;;;;;;76.10;41.80;;;;;;;-0.74;83.94;98541.25;226586;1267;22545;-75
2023/12/06 02:07:34;;;;;;;78.20;42.60;;;;;;;-0.72;84.02;98541.06;226646;1270;22744;-75
2023/12/06 02:12:36;;;;;;;82.50;44.10;;;;;;;-0.72;83.74;98540.70;226503;1269;22553;-75
2023/12/06 02:17:40;;;;;;;72.70;39.90;;;;;;;-0.70;84.05;98541.58;226642;1272;22536;-75
2023/12/06 02:22:42;;;;;;;71.80;40.00;;;;;;;-0.68;84.16;98539.52;226549;1272;22553;-75
2023/12/06 02:27:45;;;;;;;73.40;40.70;;;;;;;-0.64;84.09;98537.48;226574;1269;25504;-75
2023/12/06 02:32:47;;;;;;;69.00;39.40;;;;;;;-0.60;84.01;98533.58;226579;1273;22783;-75
2023/12/06 02:37:54;;;;;;;65.50;38.00;;;;;;;-0.60;83.64;98528.30;226557;1272;24218;-74
2023/12/06 02:42:58;;;;;;;61.40;37.00;;;;;;;-0.59;83.92;98528.23;226623;1272;22523;-75
2023/12/06 02:48:04;;;;;;;63.00;36.80;;;;;;;-0.61;83.60;98523.42;226562;1272;25411;-74
2023/12/06 02:53:06;;;;;;;59.20;36.20;;;;;;;-0.62;83.87;98518.45;226588;1270;23215;-74
2023/12/06 02:58:08;;;;;;;56.10;33.50;;;;;;;-0.59;83.94;98513.05;226553;1272;22536;-75
2023/12/06 03:03:10;;;;;;;60.50;34.30;;;;;;;-0.59;83.59;98516.89;226605;1272;22640;-75
2023/12/06 03:08:14;;;;;;;60.60;36.50;;;;;;;-0.61;83.56;98520.96;226621;1272;22789;-75
2023/12/06 03:13:16;;;;;;;64.20;37.00;;;;;;;-0.60;83.48;98521.94;226553;1272;22544;-75
2023/12/06 03:18:18;;;;;;;69.40;40.10;;;;;;;-0.61;83.96;98519.44;226534;1272;22540;-76
2023/12/06 03:23:21;;;;;;;65.20;39.20;;;;;;;-0.61;83.56;98522.74;226446;1275;25044;-75
2023/12/06 03:28:23;;;;;;;71.10;40.70;;;;;;;-0.64;83.79;98521.27;226572;1272;22654;-74
2023/12/06 03:33:25;;;;;;;74.80;42.40;;;;;;;-0.68;83.72;98520.38;226521;1269;25354;-75
2023/12/06 03:38:27;;;;;;;77.00;44.60;;;;;;;-0.72;83.60;98524.82;226571;1272;25252;-74
2023/12/06 03:43:29;;;;;;;76.20;43.80;;;;;;;-0.79;83.51;98526.42;226502;1272;22570;-75
2023/12/06 03:48:31;;;;;;;78.80;45.00;;;;;;;-0.86;83.73;98534.27;226486;1272;23070;-75
2023/12/06 03:53:34;;;;;;;79.10;45.00;;;;;;;-0.91;83.52;98533.64;226570;1274;22537;-75
2023/12/06 03:58:37;;;;;;;86.00;48.60;;;;;;;-0.98;83.48;98529.17;226570;1274;22594;-76
2023/12/06 04:03:40;;;;;;;81.80;46.70;;;;;;;-1.03;83.39;98524.95;226646;1272;23181;-75
2023/12/06 04:08:42;;;;;;;85.10;48.20;;;;;;;-1.08;83.49;98528.21;226612;1270;22572;-75
2023/12/06 04:13:44;;;;;;;80.20;45.10;;;;;;;-1.12;83.52;98538.36;226586;1270;22533;-75
2023/12/06 04:18:46;;;;;;;84.20;48.40;;;;;;;-1.16;83.70;98537.45;226678;1272;22664;-75
2023/12/06 04:23:48;;;;;;;81.20;46.90;;;;;;;-1.18;83.45;98534.52;226583;1272;22543;-76
2023/12/06 04:28:50;;;;;;;79.70;46.20;;;;;;;-1.20;83.65;98531.19;226566;1272;22543;-76
2023/12/06 04:33:52;;;;;;;88.30;46.90;;;;;;;-1.23;83.46;98535.96;226591;1272;22562;-76
2023/12/06 04:38:54;;;;;;;78.30;46.00;;;;;;;-1.25;83.58;98544.40;226579;1272;25371;-76
2023/12/06 04:43:57;;;;;;;75.20;43.10;;;;;;;-1.28;83.55;98548.77;226635;1272;22544;-77
2023/12/06 04:48:59;;;;;;;85.30;50.20;;;;;;;-1.32;83.27;98544.65;226531;1275;22619;-76
2023/12/06 04:54:01;;;;;;;82.00;47.00;;;;;;;-1.35;83.87;98547.45;226468;1272;22608;-76
2023/12/06 04:59:03;;;;;;;84.50;46.90;;;;;;;-1.37;83.68;98545.71;226484;1275;22596;-76
2023/12/06 05:04:05;;;;;;;80.50;45.20;;;;;;;-1.36;83.88;98544.82;226602;1272;22598;-77
2023/12/06 05:09:08;;;;;;;79.20;44.10;;;;;;;-1.37;83.76;98546.06;226620;1272;22541;-75
2023/12/06 05:14:10;;;;;;;75.60;43.00;;;;;;;-1.38;83.78;98543.27;226586;1272;22586;-75
2023/12/06 05:19:12;;;;;;;74.20;44.70;;;;;;;-1.38;84.16;98549.95;226450;1275;22759;-76
2023/12/06 05:24:14;;;;;;;69.10;42.90;;;;;;;-1.38;83.95;98548.61;226650;1275;22545;-76
2023/12/06 05:29:17;;;;;;;74.60;43.20;;;;;;;-1.40;83.94;98546.34;226513;1272;22540;-79
2023/12/06 05:34:19;;;;;;;74.50;43.00;;;;;;;-1.42;83.98;98550.06;226531;1271;22574;-76
2023/12/06 05:39:21;;;;;;;69.80;42.20;;;;;;;-1.40;84.06;98548.70;226526;1272;22563;-76
2023/12/06 05:44:23;;;;;;;74.00;42.90;;;;;;;-1.39;83.95;98552.98;226585;1272;22560;-76
2023/12/06 05:49:25;;;;;;;71.20;41.40;;;;;;;-1.39;83.94;98547.98;226650;1273;23285;-76
2023/12/06 05:54:27;;;;;;;73.20;42.40;;;;;;;-1.37;83.97;98545.55;226674;1272;22537;-77
2023/12/06 05:59:30;;;;;;;65.70;37.80;;;;;;;-1.35;84.08;98540.37;226512;1275;24445;-76
2023/12/06 06:04:32;;;;;;;66.50;40.50;;;;;;;-1.34;84.43;98544.92;226666;1275;22644;-75
2023/12/06 06:09:35;;;;;;;71.20;41.00;;;;;;;-1.32;84.16;98547.36;226607;1272;22757;-76
2023/12/06 06:14:39;;;;;;;70.10;41.10;;;;;;;-1.27;84.27;98550.27;226575;1272;22600;-76
2023/12/06 06:19:41;;;;;;;81.60;43.00;;;;;;;-1.22;84.16;98550.92;226615;1272;22613;-76
2023/12/06 06:24:43;;;;;;;85.40;49.00;;;;;;;-1.21;83.91;98550.17;226658;1272;22676;-76
2023/12/06 06:29:45;;;;;;;86.00;50.90;;;;;;;-1.21;84.01;98553.27;226552;1272;22683;-76
2023/12/06 06:34:47;;;;;;;93.50;53.50;;;;;;;-1.26;83.45;98555.07;226559;1275;22549;-76
2023/12/06 06:39:49;;;;;;;97.00;53.90;;;;;;;-1.36;83.39;98558.59;226380;1255;22570;-77
2023/12/06 06:44:51;;;;;;;97.60;54.30;;;;;;;-1.48;83.30;98574.83;226255;1266;22529;-77
2023/12/06 06:49:56;;;;;;;101.30;55.40;;;;;;;-1.50;83.56;98573.48;226349;1272;22627;-76
2023/12/06 06:54:59;;;;;;;92.30;52.80;;;;;;;-1.50;83.57;98581.80;226027;1257;22540;-76
2023/12/06 07:00:01;;;;;;;94.60;54.20;;;;;;;-1.49;83.30;98587.95;225733;1265;22550;-76
2023/12/06 07:05:04;;;;;;;102.90;56.30;;;;;;;-1.43;83.83;98588.14;225820;1253;22553;-75
2023/12/06 07:10:09;;;;;;;102.50;55.20;;;;;;;-1.33;83.78;98590.83;225906;1253;22549;-77
2023/12/06 07:15:14;;;;;;;104.10;57.00;;;;;;;-1.23;83.85;98589.84;225639;1256;22627;-73
2023/12/06 07:20:17;;;;;;;95.90;56.30;;;;;;;-1.12;83.88;98587.61;225542;1256;22573;-77
2023/12/06 07:25:20;;;;;;;99.50;58.70;;;;;;;-0.99;83.75;98585.95;225597;1268;24245;-76
2023/12/06 07:30:22;;;;;;;97.60;57.00;;;;;;;-0.87;83.83;98585.51;225851;1253;24228;-77
2023/12/06 07:35:25;;;;;;;100.40;57.70;;;;;;;-0.72;83.90;98589.61;225578;1269;25637;-78
2023/12/06 07:40:28;;;;;;;102.80;60.30;;;;;;;-0.59;83.63;98588.08;225675;1272;22578;-76
2023/12/06 07:45:31;;;;;;;99.60;58.00;;;;;;;-0.47;83.62;98589.69;225786;1264;23793;-75
2023/12/06 07:50:33;;;;;;;89.10;49.60;;;;;;;-0.31;83.76;98589.14;225770;1256;25392;-76
2023/12/06 07:55:35;;;;;;;82.30;49.10;;;;;;;-0.16;83.72;98586.30;225761;1256;22949;-76
2023/12/06 08:00:37;;;;;;;81.70;51.20;;;;;;;-0.02;83.46;98585.37;225650;1256;22570;-76
2023/12/06 08:05:40;;;;;;;83.10;51.80;;;;;;;0.10;83.37;98583.17;225769;1270;22643;-78
2023/12/06 08:10:43;;;;;;;94.00;58.00;;;;;;;0.22;83.05;98579.69;225791;1253;22542;-74
2023/12/06 08:15:45;;;;;;;87.80;54.80;;;;;;;0.35;83.12;98582.45;225778;1256;22549;-75
2023/12/06 08:20:48;;;;;;;101.30;58.50;;;;;;;0.48;82.80;98584.07;225861;1260;22528;-73
2023/12/06 08:25:51;;;;;;;92.40;55.40;;;;;;;0.64;82.67;98582.59;225834;1256;24244;-76
2023/12/06 08:30:53;;;;;;;88.80;50.90;;;;;;;0.78;82.31;98579.33;225949;1260;22547;-75
2023/12/06 08:35:55;;;;;;;82.50;51.10;;;;;;;0.91;82.36;98582.77;225944;1256;22544;-74
2023/12/06 08:40:57;;;;;;;92.80;54.40;;;;;;;1.09;82.08;98585.45;225897;1262;22544;-74
2023/12/06 08:45:59;;;;;;;86.10;51.50;;;;;;;1.23;82.04;98579.33;225775;1264;25295;-74
2023/12/06 08:51:04;;;;;;;86.30;51.90;;;;;;;1.42;81.86;98585.48;225764;1263;22558;-74
2023/12/06 08:56:06;;;;;;;87.50;50.40;;;;;;;1.64;81.76;98589.76;225747;1256;22536;-74
2023/12/06 09:01:09;;;;;;;82.20;49.30;;;;;;;1.86;81.73;98591.73;225803;1260;22537;-75
2023/12/06 09:06:11;;;;;;;78.10;46.80;;;;;;;2.06;81.34;98591.12;226117;1261;25303;-76
2023/12/06 09:11:19;;;;;;;95.30;56.90;;;;;;;2.22;80.79;98585.23;226115;1269;24228;-74
2023/12/06 09:16:21;;;;;;;101.10;61.10;;;;;;;2.18;79.88;98579.14;226108;1269;25369;-75
2023/12/06 09:21:26;;;;;;;107.70;63.70;;;;;;;2.07;79.27;98578.71;225920;1254;25365;-75
2023/12/06 09:26:28;;;;;;;105.00;61.30;;;;;;;1.92;78.97;98577.86;226059;1265;23037;-75
2023/12/06 09:31:30;;;;;;;114.50;69.00;;;;;;;1.83;78.78;98580.02;226015;1256;25250;-75
2023/12/06 09:36:32;;;;;;;116.70;71.00;;;;;;;1.77;79.00;98581.66;225978;1257;22533;-76
2023/12/06 09:41:34;;;;;;;116.00;69.60;;;;;;;1.75;78.72;98578.86;225933;1272;22620;-76
2023/12/06 09:46:36;;;;;;;115.70;68.90;;;;;;;1.83;79.30;98575.75;226106;1257;22569;-75
2023/12/06 09:51:38;;;;;;;118.40;71.20;;;;;;;1.97;79.11;98582.38;225939;1272;22545;-76
2023/12/06 09:56:40;;;;;;;112.90;68.00;;;;;;;2.07;79.06;98580.93;225863;1261;22998;-75
2023/12/06 10:01:42;;;;;;;111.30;68.40;;;;;;;2.21;79.20;98581.08;225925;1270;22577;-76
2023/12/06 10:06:44;;;;;;;122.90;71.90;;;;;;;2.30;78.93;98577.52;225971;1256;22540;-76
2023/12/06 10:11:49;;;;;;;115.80;70.00;;;;;;;2.34;78.88;98577.25;225815;1271;22555;-77
2023/12/06 10:16:52;;;;;;;116.00;70.70;;;;;;;2.47;78.95;98572.24;225811;1269;22547;-75
2023/12/06 10:21:56;;;;;;;114.00;71.50;;;;;;;2.55;78.59;98571.02;225827;1256;22932;-75
2023/12/06 10:27:12;;;;;;;108.40;67.30;;;;;;;2.62;78.61;98570.48;225890;1255;26378;-77
2023/12/06 10:32:16;;;;;;;103.20;60.90;;;;;;;2.80;78.72;98564.64;226086;1257;22548;-76
2023/12/06 10:37:21;;;;;;;98.40;60.90;;;;;;;2.91;78.30;98560.84;225684;1265;22919;-77
2023/12/06 10:42:32;;;;;;;106.40;65.00;;;;;;;2.92;78.22;98559.02;226126;1270;22551;-77
2023/12/06 10:47:34;;;;;;;110.60;66.60;;;;;;;2.97;77.94;98554.31;226215;1256;22731;-75
2023/12/06 10:52:38;;;;;;;119.60;75.00;;;;;;;2.88;77.56;98553.81;226200;1269;23030;-76
2023/12/06 10:57:41;;;;;;;117.00;72.30;;;;;;;2.85;77.74;98552.69;226125;1258;23196;-77
2023/12/06 11:02:43;;;;;;;117.90;74.10;;;;;;;2.91;78.20;98555.25;225944;1262;22673;-77
2023/12/06 11:08:14;;;;;;;112.60;70.20;;;;;;;2.86;77.60;98555.16;226149;1257;22567;-76
2023/12/06 11:13:37;;;;;;;109.40;69.30;;;;;;;2.75;77.33;98550.17;226037;1256;22551;-77
2023/12/06 11:18:44;;;;;;;115.50;68.80;;;;;;;2.65;77.52;98557.74;226144;1270;22550;-77
2023/12/06 11:25:13;;;;;;;106.10;66.80;;;;;;;2.57;77.57;98556.91;219037;1284;7305544;-78
2023/12/06 11:30:17;;;;;;;110.10;66.40;;;;;;;2.61;77.89;98552.70;224533;1275;22570;-78
2023/12/06 11:35:19;;;;;;;108.00;69.00;;;;;;;2.63;77.67;98550.64;224478;1275;22619;-77
2023/12/06 11:40:24;;;;;;;112.30;68.70;;;;;;;2.65;77.71;98549.89;224393;1259;22651;-76
2023/12/06 11:45:32;;;;;;;110.20;66.80;;;;;;;2.58;77.45;98547.95;224569;1271;22621;-79
2023/12/06 11:50:46;;;;;;;120.50;67.80;;;;;;;2.54;77.77;98553.90;224631;1260;22553;-76
2023/12/06 11:55:49;;;;;;;108.00;65.40;;;;;;;2.52;77.83;98556.77;224807;1282;24607;-75
2023/12/06 12:00:54;;;;;;;98.70;59.30;;;;;;;2.48;77.56;98554.45;225268;1260;22551;-73
2023/12/06 12:05:57;;;;;;;95.60;56.20;;;;;;;2.38;77.61;98548.94;226374;1270;22552;-74
2023/12/06 12:11:00;;;;;;;90.60;53.50;;;;;;;2.31;77.63;98545.37;226387;1267;22543;-74
2023/12/06 12:16:02;;;;;;;90.10;54.90;;;;;;;2.29;77.77;98544.20;226461;1267;23198;-73
2023/12/06 12:21:11;;;;;;;81.30;50.40;;;;;;;2.30;77.74;98538.70;226166;1267;22577;-76
2023/12/06 12:26:14;;;;;;;83.10;50.40;;;;;;;2.36;77.80;98541.63;226036;1261;22589;-77
2023/12/06 12:31:23;;;;;;;86.30;52.40;;;;;;;2.35;77.75;98538.11;225632;1273;22549;-77
2023/12/06 12:36:26;;;;;;;85.70;52.50;;;;;;;2.41;77.92;98535.61;225454;1271;24519;-78
2023/12/06 12:41:32;;;;;;;81.30;51.90;;;;;;;2.40;77.68;98538.61;225800;1251;24306;-80
2023/12/06 12:46:36;;;;;;;81.70;51.70;;;;;;;2.42;77.74;98535.17;225708;1254;22591;-76
2023/12/06 12:51:49;;;;;;;86.00;53.00;;;;;;;2.39;77.55;98528.71;225820;1270;22565;-75
2023/12/06 12:56:51;;;;;;;81.90;51.40;;;;;;;2.26;77.45;98524.69;225756;1254;22574;-73
2023/12/06 13:01:53;;;;;;;91.20;56.40;;;;;;;2.16;77.50;98523.94;225927;1270;22547;-74
2023/12/06 13:06:55;;;;;;;87.90;54.70;;;;;;;2.04;77.64;98524.86;225969;1267;22695;-73
2023/12/06 13:11:57;;;;;;;98.90;59.50;;;;;;;1.92;78.11;98529.23;226041;1267;23010;-72
2023/12/06 13:17:01;;;;;;;96.00;59.80;;;;;;;1.93;78.77;98537.30;225920;1269;22539;-72
2023/12/06 13:22:04;;;;;;;92.70;57.20;;;;;;;1.91;78.89;98540.24;226146;1257;22560;-76
2023/12/06 13:27:21;;;;;;;90.40;56.20;;;;;;;1.77;78.79;98546.75;225754;1269;22532;-77
2023/12/06 13:32:24;;;;;;;95.10;56.60;;;;;;;1.64;79.17;98550.81;225830;1255;22528;-74
2023/12/06 13:37:26;;;;;;;99.50;61.00;;;;;;;1.44;79.16;98554.02;225799;1254;22564;-76
2023/12/06 13:42:28;;;;;;;90.10;54.20;;;;;;;1.21;79.38;98554.31;225762;1254;22531;-76
2023/12/06 13:47:30;;;;;;;82.30;49.90;;;;;;;1.02;79.84;98557.39;225710;1255;22544;-75
2023/12/06 13:52:32;;;;;;;87.00;54.20;;;;;;;0.87;80.30;98557.34;225626;1251;22575;-75
2023/12/06 13:57:35;;;;;;;76.60;47.80;;;;;;;0.79;80.32;98557.00;225862;1251;22562;-76
2023/12/06 14:02:37;;;;;;;76.20;46.50;;;;;;;0.70;80.65;98557.11;226044;1260;22556;-74
2023/12/06 14:07:39;;;;;;;79.40;46.90;;;;;;;0.60;80.62;98558.66;226029;1270;22578;-76
2023/12/06 14:12:41;;;;;;;69.10;42.90;;;;;;;0.48;80.83;98565.59;225927;1254;22568;-73
2023/12/06 14:17:43;;;;;;;74.70;44.20;;;;;;;0.36;81.14;98562.73;226008;1269;22551;-75
2023/12/06 14:22:46;;;;;;;81.30;48.60;;;;;;;0.30;81.30;98562.39;225828;1257;22545;-75
2023/12/06 14:27:49;;;;;;;87.60;49.10;;;;;;;0.25;81.59;98564.58;225694;1269;22566;-78
2023/12/06 14:32:51;;;;;;;84.30;45.30;;;;;;;0.20;82.00;98566.31;225802;1264;24244;-75
2023/12/06 14:37:53;;;;;;;76.50;45.20;;;;;;;0.14;81.90;98565.65;225756;1254;25464;-79
2023/12/06 14:42:56;;;;;;;67.80;39.50;;;;;;;0.06;81.93;98562.17;225883;1256;22650;-76
2023/12/06 14:47:58;;;;;;;60.00;36.10;;;;;;;0.04;82.41;98563.58;225822;1257;22669;-75
2023/12/06 14:53:00;;;;;;;60.30;36.80;;;;;;;-0.02;82.58;98564.38;225944;1256;22902;-75
2023/12/06 14:58:02;;;;;;;57.20;35.00;;;;;;;-0.07;82.92;98564.45;226061;1269;22564;-75
2023/12/06 15:03:05;;;;;;;54.50;32.20;;;;;;;-0.07;83.11;98563.08;225775;1264;25562;-75
2023/12/06 15:08:07;;;;;;;56.40;34.80;;;;;;;-0.11;82.75;98564.90;225526;1270;22545;-78
2023/12/06 15:13:11;;;;;;;61.50;37.00;;;;;;;-0.13;83.09;98571.34;225520;1267;22567;-77
2023/12/06 15:18:13;;;;;;;65.60;40.00;;;;;;;-0.13;83.33;98569.83;226141;1276;22584;-77
2023/12/06 15:23:16;;;;;;;66.70;40.50;;;;;;;-0.11;83.44;98571.84;225897;1275;24311;-75
2023/12/06 15:28:18;;;;;;;63.10;39.90;;;;;;;-0.09;83.72;98569.15;226252;1276;22581;-77
2023/12/06 15:33:21;;;;;;;76.00;46.20;;;;;;;-0.09;83.66;98568.20;226149;1276;25338;-75
2023/12/06 15:38:24;;;;;;;71.80;41.60;;;;;;;-0.09;83.73;98574.11;226206;1272;22547;-75
2023/12/06 15:43:28;;;;;;;73.70;43.30;;;;;;;-0.10;83.63;98574.20;226267;1276;25572;-75
2023/12/06 15:48:33;;;;;;;82.50;48.80;;;;;;;-0.13;84.07;98576.51;226048;1276;24895;-75
2023/12/06 15:53:36;;;;;;;79.80;47.00;;;;;;;-0.14;83.89;98580.92;226272;1275;22596;-76
2023/12/06 15:58:44;;;;;;;84.10;44.80;;;;;;;-0.16;84.06;98582.88;226301;1268;22714;-75
2023/12/06 16:03:56;;;;;;;87.30;49.60;;;;;;;-0.21;84.06;98581.70;226261;1272;22630;-75
2023/12/06 16:09:05;;;;;;;102.30;60.90;;;;;;;-0.22;84.18;98584.91;226157;1276;22581;-75
2023/12/06 16:14:07;;;;;;;93.90;57.80;;;;;;;-0.22;84.03;98584.95;226215;1267;22582;-74
2023/12/06 16:19:10;;;;;;;96.70;58.50;;;;;;;-0.24;84.04;98586.44;226207;1275;24260;-75
2023/12/06 16:24:12;;;;;;;94.00;54.00;;;;;;;-0.25;84.18;98590.90;226177;1276;22554;-75
2023/12/06 16:29:14;;;;;;;98.30;58.00;;;;;;;-0.25;84.39;98592.62;226120;1275;22621;-74
2023/12/06 16:34:16;;;;;;;96.80;57.90;;;;;;;-0.24;84.44;98603.45;226154;1273;22570;-74
2023/12/06 16:39:19;;;;;;;100.00;58.00;;;;;;;-0.24;84.40;98603.59;226231;1276;24275;-74
2023/12/06 16:44:23;;;;;;;100.00;59.90;;;;;;;-0.24;84.42;98606.05;226190;1275;22496;-76
2023/12/06 16:49:28;;;;;;;102.60;58.70;;;;;;;-0.23;84.49;98610.79;226012;1276;22729;-74
2023/12/06 16:54:45;;;;;;;98.00;57.20;;;;;;;-0.20;84.62;98615.76;226244;1273;22566;-74
2023/12/06 16:59:50;;;;;;;103.70;61.00;;;;;;;-0.19;84.53;98616.51;226199;1276;22639;-75
2023/12/06 17:04:52;;;;;;;111.20;66.40;;;;;;;-0.19;84.35;98618.45;226042;1276;22537;-75
2023/12/06 17:09:54;;;;;;;107.60;62.80;;;;;;;-0.19;84.48;98626.75;226282;1273;22478;-76
2023/12/06 17:14:58;;;;;;;109.50;63.60;;;;;;;-0.20;84.60;98628.90;226234;1272;22538;-75
2023/12/06 17:20:02;;;;;;;121.50;71.10;;;;;;;-0.19;84.34;98630.17;226232;1273;22532;-76
2023/12/06 17:25:10;;;;;;;105.30;61.30;;;;;;;-0.17;84.44;98628.80;226208;1271;22066;-75
2023/12/06 17:30:16;;;;;;;114.10;64.70;;;;;;;-0.18;84.46;98629.44;226284;1274;22543;-74
2023/12/06 17:35:19;;;;;;;120.30;71.30;;;;;;;-0.20;84.67;98635.60;226306;1268;22567;-75
2023/12/06 17:40:22;;;;;;;115.30;66.20;;;;;;;-0.20;84.42;98638.39;226162;1276;22619;-74
2023/12/06 17:45:28;;;;;;;116.80;68.10;;;;;;;-0.22;84.35;98640.30;226225;1273;22565;-77
2023/12/06 17:50:31;;;;;;;106.00;61.00;;;;;;;-0.22;84.24;98643.63;226203;1276;25361;-75
2023/12/06 17:55:33;;;;;;;104.70;59.60;;;;;;;-0.22;84.39;98645.48;226219;1275;25431;-76
2023/12/06 18:00:35;;;;;;;103.20;60.50;;;;;;;-0.23;84.64;98644.34;226153;1276;22527;-76
2023/12/06 18:05:37;;;;;;;113.50;65.10;;;;;;;-0.22;84.41;98649.31;226131;1275;22571;-75
2023/12/06 18:10:40;;;;;;;108.60;63.90;;;;;;;-0.22;84.83;98651.39;226161;1276;22832;-75
2023/12/06 18:15:42;;;;;;;109.00;64.10;;;;;;;-0.23;84.43;98657.20;226060;1273;22700;-76
2023/12/06 18:20:44;;;;;;;112.40;67.40;;;;;;;-0.23;84.55;98661.98;226087;1270;22554;-75
2023/12/06 18:25:46;;;;;;;119.20;71.20;;;;;;;-0.24;84.65;98667.26;226149;1275;22563;-75
2023/12/06 18:30:49;;;;;;;113.80;65.10;;;;;;;-0.24;84.51;98662.08;226106;1276;22689;-77
2023/12/06 18:35:52;;;;;;;97.70;57.10;;;;;;;-0.23;84.55;98661.14;226325;1270;24218;-77
2023/12/06 18:40:54;;;;;;;101.60;59.00;;;;;;;-0.23;84.80;98658.90;226007;1272;22631;-76
2023/12/06 18:45:56;;;;;;;99.50;59.40;;;;;;;-0.23;84.55;98670.33;226048;1273;22856;-76
2023/12/06 18:50:58;;;;;;;103.70;59.40;;;;;;;-0.21;84.80;98669.98;226097;1265;22558;-74
2023/12/06 18:56:02;;;;;;;104.80;60.00;;;;;;;-0.21;84.48;98673.10;226132;1276;22558;-76
2023/12/06 19:01:04;;;;;;;104.60;59.00;;;;;;;-0.23;84.79;98677.89;226174;1269;22603;-74
2023/12/06 19:06:07;;;;;;;100.50;57.90;;;;;;;-0.25;84.66;98683.80;226055;1273;22548;-75
2023/12/06 19:11:10;;;;;;;99.20;56.50;;;;;;;-0.28;84.57;98686.95;226128;1272;22551;-75
2023/12/06 19:16:12;;;;;;;102.60;58.20;;;;;;;-0.30;84.49;98685.95;226163;1269;22975;-76
2023/12/06 19:21:16;;;;;;;104.70;56.50;;;;;;;-0.35;84.36;98689.06;226019;1276;22544;-75
2023/12/06 19:26:18;;;;;;;98.50;53.90;;;;;;;-0.41;84.25;98695.09;226094;1275;22527;-75
2023/12/06 19:31:23;;;;;;;97.90;53.80;;;;;;;-0.45;84.33;98695.30;226522;1273;22543;-75
2023/12/06 19:36:26;;;;;;;89.60;49.30;;;;;;;-0.50;84.25;98699.43;226249;1274;22560;-74
2023/12/06 19:41:30;;;;;;;85.20;47.30;;;;;;;-0.50;84.43;98699.80;226342;1269;22550;-73
2023/12/06 19:46:32;;;;;;;89.30;48.90;;;;;;;-0.52;84.05;98706.34;226219;1274;22548;-74
2023/12/06 19:51:34;;;;;;;89.60;51.10;;;;;;;-0.56;83.97;98711.15;226223;1273;22572;-75
2023/12/06 19:56:39;;;;;;;92.00;50.30;;;;;;;-0.59;84.27;98713.98;226143;1275;22580;-75
2023/12/06 20:01:41;;;;;;;90.90;50.20;;;;;;;-0.65;83.93;98714.66;225946;1271;22575;-74
2023/12/06 20:06:44;;;;;;;87.60;49.40;;;;;;;-0.68;84.16;98718.86;226077;1272;25286;-76
2023/12/06 20:11:50;;;;;;;88.50;50.00;;;;;;;-0.75;83.81;98718.18;226168;1272;23080;-74
2023/12/06 20:16:53;;;;;;;91.20;49.80;;;;;;;-0.81;84.00;98729.16;226270;1273;22614;-74
2023/12/06 20:21:56;;;;;;;88.90;48.30;;;;;;;-0.84;83.53;98729.11;226228;1269;22572;-75
2023/12/06 20:26:58;;;;;;;85.90;49.20;;;;;;;-0.88;83.73;98738.53;226220;1275;22559;-75
2023/12/06 20:32:00;;;;;;;88.60;47.50;;;;;;;-0.91;83.72;98740.22;226220;1275;23016;-74
2023/12/06 20:37:02;;;;;;;86.60;48.00;;;;;;;-0.97;83.72;98738.23;226191;1272;22547;-75
2023/12/06 20:42:05;;;;;;;89.40;48.50;;;;;;;-1.04;83.56;98738.25;226215;1275;22590;-75
2023/12/06 20:47:07;;;;;;;95.00;51.10;;;;;;;-1.09;83.73;98739.45;226221;1272;25307;-76
2023/12/06 20:52:09;;;;;;;92.80;49.20;;;;;;;-1.17;83.30;98741.24;226189;1272;22536;-75
2023/12/06 20:57:12;;;;;;;92.10;47.60;;;;;;;-1.25;83.41;98745.55;226039;1276;22539;-75
2023/12/06 21:02:15;;;;;;;88.20;47.90;;;;;;;-1.34;83.39;98741.00;226320;1269;22544;-75
2023/12/06 21:07:17;;;;;;;84.50;47.00;;;;;;;-1.40;83.15;98746.80;226206;1274;23303;-74
2023/12/06 21:12:19;;;;;;;91.50;49.90;;;;;;;-1.46;83.27;98747.59;226181;1272;22548;-75
2023/12/06 21:17:22;;;;;;;89.80;48.80;;;;;;;-1.50;83.51;98744.08;226168;1276;22552;-75
2023/12/06 21:22:24;;;;;;;90.10;48.70;;;;;;;-1.52;83.53;98750.13;226204;1273;26120;-74
2023/12/06 21:27:28;;;;;;;96.00;50.80;;;;;;;-1.54;83.47;98765.46;226239;1275;22543;-74
2023/12/06 21:32:32;;;;;;;82.80;44.50;;;;;;;-1.57;83.41;98777.64;226236;1276;22543;-74
2023/12/06 21:37:35;;;;;;;88.70;46.90;;;;;;;-1.61;83.61;98775.15;226052;1276;22585;-75
2023/12/06 21:42:37;;;;;;;86.60;47.20;;;;;;;-1.64;83.82;98773.45;226244;1276;22608;-75
2023/12/06 21:47:39;;;;;;;86.90;47.70;;;;;;;-1.65;83.79;98766.98;225994;1276;22785;-73
2023/12/06 21:52:43;;;;;;;82.80;45.90;;;;;;;-1.65;83.56;98767.04;226203;1276;22556;-75
2023/12/06 21:57:45;;;;;;;89.40;49.80;;;;;;;-1.68;83.70;98775.70;226095;1275;22559;-76
2023/12/06 22:02:47;;;;;;;95.50;51.10;;;;;;;-1.72;83.52;98774.57;226209;1275;22957;-74
2023/12/06 22:07:53;;;;;;;84.10;44.40;;;;;;;-1.76;83.42;98781.08;226160;1276;22526;-75
2023/12/06 22:12:55;;;;;;;94.90;50.90;;;;;;;-1.78;83.96;98775.02;226223;1273;22563;-74
2023/12/06 22:17:57;;;;;;;103.70;53.60;;;;;;;-1.80;84.00;98777.55;226208;1276;22584;-74
2023/12/06 22:22:59;;;;;;;90.10;48.10;;;;;;;-1.82;83.88;98782.17;226196;1276;22552;-75
2023/12/06 22:28:01;;;;;;;98.30;51.70;;;;;;;-1.84;84.01;98781.95;226210;1265;22661;-75
2023/12/06 22:33:03;;;;;;;98.50;51.50;;;;;;;-1.84;84.18;98782.50;226209;1276;22540;-74
2023/12/06 22:38:05;;;;;;;89.50;49.70;;;;;;;-1.84;84.08;98783.20;226156;1274;22929;-74
2023/12/06 22:43:18;;;;;;;88.10;45.80;;;;;;;-1.85;83.92;98778.25;226146;1275;22664;-75
2023/12/06 22:48:20;;;;;;;84.40;46.90;;;;;;;-1.88;83.63;98779.86;226226;1275;24903;-74
2023/12/06 22:53:22;;;;;;;97.00;51.80;;;;;;;-1.92;84.06;98782.55;226125;1276;25485;-74
2023/12/06 22:58:25;;;;;;;95.60;47.30;;;;;;;-1.96;83.85;98776.65;226257;1273;22546;-74